Time;durP1;ratioP1;P1;durP2;ratioP2;P2;SDS_P1;SDS_P2;PMS_P1;PMS_P2;Temp;Humidity;BMP_temperature;BMP_pressure;BME280_temperature;BME280_humidity;BME280_pressure;Samples;Min_cycle;Max_cycle;Signal;HPM_P1;HPM_P2
2022/08/06 00:00:03;;;;;;;8.73;8.13;;;;;;;20.44;99.94;100321.38;1704551;82;21018;-71
2022/08/06 00:02:32;;;;;;;8.90;8.40;;;;;;;20.43;99.87;100327.84;1705089;82;21034;-71
2022/08/06 00:05:01;;;;;;;8.78;8.08;;;;;;;20.42;99.85;100324.33;1706355;83;21187;-74
2022/08/06 00:07:28;;;;;;;8.95;8.25;;;;;;;20.40;99.82;100328.37;1699894;82;20997;-74
2022/08/06 00:09:56;;;;;;;8.48;7.72;;;;;;;20.37;99.91;100335.09;1701047;82;21533;-74
2022/08/06 00:12:22;;;;;;;8.78;8.28;;;;;;;20.33;99.97;100327.75;1697874;83;20981;-75
2022/08/06 00:14:48;;;;;;;9.38;8.58;;;;;;;20.29;100.00;100330.14;1701725;82;21048;-72
2022/08/06 00:17:15;;;;;;;11.83;8.15;;;;;;;20.26;100.00;100327.93;1691120;82;21060;-71
2022/08/06 00:19:41;;;;;;;8.18;7.55;;;;;;;20.24;100.00;100332.78;1708150;82;21181;-71
2022/08/06 00:22:07;;;;;;;;;;;;;;;20.22;100.00;100334.38;1711360;82;21156;-70
2022/08/06 00:24:33;;;;;;;9.03;8.40;;;;;;;20.19;100.00;100335.41;1704681;82;20134;-72
2022/08/06 00:26:59;;;;;;;;;;;;;;;20.10;100.00;100335.06;1711154;82;21492;-71
2022/08/06 00:29:25;;;;;;;9.80;9.10;;;;;;;20.08;100.00;100341.77;1704453;82;20158;-74
2022/08/06 00:31:51;;;;;;;;;;;;;;;20.01;100.00;100341.43;1706268;82;21493;-70
2022/08/06 00:34:17;;;;;;;9.48;8.65;;;;;;;20.00;100.00;100343.87;1711080;82;20104;-74
2022/08/06 00:36:43;;;;;;;;;;;;;;;19.96;100.00;100340.00;1703008;82;21036;-73
2022/08/06 00:39:09;;;;;;;8.88;8.08;;;;;;;19.97;100.00;100341.66;1696990;82;20181;-73
2022/08/06 00:41:37;;;;;;;11.80;9.40;;;;;;;19.93;100.00;100344.58;1701517;82;21060;-71
2022/08/06 00:44:04;;;;;;;8.90;8.03;;;;;;;19.94;100.00;100346.20;1705247;81;21088;-73
2022/08/06 00:46:30;;;;;;;12.65;8.78;;;;;;;19.95;100.00;100345.69;1711276;82;21557;-71
2022/08/06 00:48:58;;;;;;;9.68;8.88;;;;;;;19.96;100.00;100352.72;1704290;82;20980;-69
2022/08/06 00:51:26;;;;;;;;;;;;;;;19.96;100.00;100348.12;1708501;82;20960;-69
2022/08/06 00:53:53;;;;;;;8.78;8.18;;;;;;;19.96;100.00;100353.53;1709960;82;20151;-70
2022/08/06 00:56:19;;;;;;;8.40;7.80;;;;;;;19.91;100.00;100360.24;1710400;82;20990;-72
2022/08/06 00:58:45;;;;;;;9.40;8.48;;;;;;;19.90;100.00;100356.43;1710672;82;21050;-72
2022/08/06 01:01:12;;;;;;;8.25;7.65;;;;;;;19.90;100.00;100364.00;1708110;82;21010;-73
2022/08/06 01:03:38;;;;;;;8.03;7.42;;;;;;;19.91;100.00;100358.05;1698209;82;21141;-73
2022/08/06 01:06:05;;;;;;;8.73;8.00;;;;;;;19.91;100.00;100357.54;1705822;82;21035;-71
2022/08/06 01:08:31;;;;;;;8.68;7.87;;;;;;;19.92;100.00;100359.16;1709557;84;20994;-73
2022/08/06 01:10:57;;;;;;;7.47;6.85;;;;;;;19.93;100.00;100355.91;1706141;82;21149;-72
2022/08/06 01:13:23;;;;;;;;;;;;;;;19.91;100.00;100352.13;1705807;82;21042;-72
2022/08/06 01:16:00;;;;;;;8.75;8.00;;;;;;;19.89;100.00;100356.97;1704941;82;20167;-73
2022/08/06 01:18:31;;;;;;;7.87;7.25;;;;;;;19.85;100.00;100354.45;1697133;82;21152;-73
2022/08/06 01:21:28;;;;;;;8.63;7.83;;;;;;;19.85;100.00;100354.45;1707036;82;20989;-72
2022/08/06 01:23:58;;;;;;;;;;;;;;;19.86;100.00;100353.41;1683256;82;21428;-73
2022/08/06 01:26:48;;;;;;;7.78;7.20;;;;;;;19.87;99.82;100356.92;1694498;84;20175;-73
2022/08/06 01:29:31;;;;;;;7.50;7.00;;;;;;;19.81;99.82;100359.55;1680462;84;21581;-73
2022/08/06 01:32:09;;;;;;;8.13;7.45;;;;;;;19.82;99.60;100361.20;1701285;82;21025;-73
2022/08/06 01:34:42;;;;;;;8.33;7.72;;;;;;;19.81;99.22;100358.73;1719815;81;20998;-71
2022/08/06 01:37:17;;;;;;;7.97;7.33;;;;;;;19.80;98.99;100357.11;1726791;81;21025;-72
2022/08/06 01:39:46;;;;;;;7.67;7.17;;;;;;;19.81;98.59;100352.78;1725804;81;21478;-72
2022/08/06 01:42:15;;;;;;;8.50;7.53;;;;;;;19.80;98.39;100349.81;1740531;81;21097;-72
2022/08/06 01:44:46;;;;;;;7.55;6.97;;;;;;;19.81;98.32;100350.08;1740121;81;21023;-71
2022/08/06 01:47:15;;;;;;;8.73;8.13;;;;;;;19.81;98.08;100347.91;1736765;81;21073;-71
2022/08/06 01:49:49;;;;;;;10.30;7.03;;;;;;;19.80;97.98;100346.30;1736294;81;21017;-72
2022/08/06 01:52:17;;;;;;;7.62;6.92;;;;;;;19.80;97.95;100353.06;1730159;81;21548;-71
2022/08/06 01:54:46;;;;;;;7.92;7.35;;;;;;;19.78;97.83;100350.59;1735116;81;21033;-73
2022/08/06 01:57:17;;;;;;;7.05;6.55;;;;;;;19.77;97.77;100346.24;1739801;81;21018;-73
2022/08/06 01:59:48;;;;;;;8.05;7.33;;;;;;;19.77;97.53;100349.48;1738034;81;21093;-72
2022/08/06 02:02:21;;;;;;;6.83;6.22;;;;;;;19.77;97.36;100349.48;1741201;81;21510;-74
2022/08/06 02:04:54;;;;;;;7.78;7.28;;;;;;;19.76;97.16;100353.24;1740557;81;21490;-75
2022/08/06 02:07:25;;;;;;;8.03;7.50;;;;;;;19.73;97.22;100351.06;1731725;81;20995;-73
2022/08/06 02:09:53;;;;;;;8.48;7.72;;;;;;;19.72;97.36;100358.84;1737782;81;21037;-73
2022/08/06 02:12:24;;;;;;;7.90;7.12;;;;;;;19.69;97.49;100357.46;1738983;81;21039;-72
2022/08/06 02:14:59;;;;;;;8.58;7.55;;;;;;;19.66;97.68;100356.59;1733844;81;21498;-73
2022/08/06 02:17:30;;;;;;;7.83;7.33;;;;;;;19.61;97.83;100353.30;1732264;81;21008;-73
2022/08/06 02:20:00;;;;;;;7.65;7.08;;;;;;;19.56;98.23;100353.21;1742491;81;20955;-71
2022/08/06 02:22:34;;;;;;;7.65;6.92;;;;;;;19.56;98.45;100358.62;1739538;80;21003;-71
2022/08/06 02:25:06;;;;;;;7.78;7.28;;;;;;;19.56;98.61;100361.86;1730270;81;21546;-72
2022/08/06 02:27:35;;;;;;;9.18;8.33;;;;;;;19.55;98.78;100361.05;1732074;81;21050;-73
2022/08/06 02:30:03;;;;;;;7.90;7.08;;;;;;;19.55;98.94;100365.63;1735054;81;21081;-73
2022/08/06 02:32:29;;;;;;;8.00;7.30;;;;;;;19.54;99.07;100363.45;1734865;81;20961;-71
2022/08/06 02:34:55;;;;;;;8.38;7.87;;;;;;;19.53;99.23;100365.86;1719502;81;21077;-71
2022/08/06 02:37:33;;;;;;;9.13;8.25;;;;;;;19.53;99.32;100364.51;1733323;81;21014;-73
2022/08/06 02:40:13;;;;;;;8.38;7.65;;;;;;;19.51;99.44;100362.59;1739084;81;21022;-71
2022/08/06 02:42:47;;;;;;;8.38;7.67;;;;;;;19.50;99.62;100367.73;1736122;81;21041;-73
2022/08/06 02:45:28;;;;;;;9.23;8.18;;;;;;;19.48;99.93;100372.56;1736323;81;21147;-70
2022/08/06 02:48:12;;;;;;;8.60;8.08;;;;;;;19.46;100.00;100370.64;1737487;81;21019;-73
2022/08/06 02:50:45;;;;;;;8.30;7.80;;;;;;;19.45;100.00;100371.16;1739053;81;21046;-72
2022/08/06 02:53:19;;;;;;;9.25;8.55;;;;;;;19.41;100.00;100375.95;1733305;81;21022;-72
2022/08/06 02:55:51;;;;;;;9.20;8.40;;;;;;;19.39;100.00;100382.14;1741356;81;21114;-72
2022/08/06 02:58:23;;;;;;;8.75;8.10;;;;;;;19.40;100.00;100372.95;1733822;81;21057;-72
2022/08/06 03:00:52;;;;;;;8.43;7.28;;;;;;;19.45;100.00;100382.50;1739159;81;21002;-74
2022/08/06 03:03:24;;;;;;;9.65;8.85;;;;;;;19.61;100.00;100378.98;1732121;81;21090;-72
2022/08/06 03:05:52;;;;;;;9.00;8.10;;;;;;;19.89;100.00;100380.48;1739012;81;21007;-70
2022/08/06 03:08:22;;;;;;;7.33;6.77;;;;;;;20.19;100.00;100382.77;1723136;81;21116;-71
2022/08/06 03:10:52;;;;;;;7.87;7.28;;;;;;;20.55;98.62;100379.14;1738135;82;21078;-70
2022/08/06 03:13:21;;;;;;;8.05;7.35;;;;;;;20.87;96.38;100387.40;1728201;82;21097;-70
2022/08/06 03:15:49;;;;;;;6.92;6.53;;;;;;;21.24;94.59;100393.96;1736857;81;20978;-69
2022/08/06 03:18:17;;;;;;;6.87;6.37;;;;;;;21.56;92.31;100396.14;1727276;81;21002;-71
2022/08/06 03:20:44;;;;;;;7.25;6.65;;;;;;;21.89;90.50;100391.49;1726769;80;21041;-73
2022/08/06 03:23:13;;;;;;;6.83;6.28;;;;;;;22.26;88.24;100397.39;1732444;81;21069;-73
2022/08/06 03:25:42;;;;;;;7.05;6.53;;;;;;;22.60;85.86;100397.53;1749021;81;21125;-72
2022/08/06 03:28:11;;;;;;;7.00;6.50;;;;;;;22.88;82.53;100405.20;1713624;81;21554;-71
2022/08/06 03:30:40;;;;;;;7.60;7.00;;;;;;;23.12;81.33;100400.11;1720055;81;20951;-73
2022/08/06 03:33:13;;;;;;;7.40;6.83;;;;;;;23.40;80.64;100392.52;1727826;81;21098;-73
2022/08/06 03:35:40;;;;;;;6.25;5.78;;;;;;;23.70;79.03;100388.14;1725321;81;21030;-74
2022/08/06 03:38:11;;;;;;;7.08;6.53;;;;;;;24.02;77.53;100386.46;1738202;81;20989;-75
2022/08/06 03:40:42;;;;;;;7.30;6.42;;;;;;;24.36;75.88;100395.88;1721937;81;21007;-75
2022/08/06 03:43:09;;;;;;;7.50;6.90;;;;;;;24.68;73.97;100394.11;1719667;81;20993;-75
2022/08/06 03:45:43;;;;;;;7.10;6.50;;;;;;;24.98;71.85;100398.55;1731702;81;20990;-71
2022/08/06 03:48:13;;;;;;;6.72;5.95;;;;;;;25.24;71.02;100397.02;1725983;81;21003;-71
2022/08/06 03:50:43;;;;;;;7.70;5.60;;;;;;;25.53;69.44;100399.78;1733223;81;21017;-73
2022/08/06 03:53:26;;;;;;;5.80;5.30;;;;;;;25.78;67.35;100406.91;1734444;81;21099;-71
2022/08/06 03:55:58;;;;;;;5.90;5.60;;;;;;;26.00;66.22;100405.63;1736260;81;20979;-72
2022/08/06 03:58:28;;;;;;;6.20;5.65;;;;;;;26.14;64.54;100410.64;1736496;81;21018;-72
2022/08/06 04:01:09;;;;;;;6.22;5.60;;;;;;;26.22;64.70;100407.28;1733206;81;21043;-73
2022/08/06 04:03:37;;;;;;;6.40;6.00;;;;;;;26.40;63.96;100411.71;1731347;81;21513;-71
2022/08/06 04:06:05;;;;;;;6.03;5.58;;;;;;;26.64;62.86;100418.55;1726841;81;20987;-72
2022/08/06 04:08:33;;;;;;;7.03;5.80;;;;;;;26.87;61.46;100426.42;1706864;82;21644;-72
2022/08/06 04:11:00;;;;;;;6.08;5.47;;;;;;;27.06;60.33;100422.31;1740547;81;21478;-71
2022/08/06 04:13:27;;;;;;;5.83;5.42;;;;;;;27.12;60.09;100428.52;1738112;81;21089;-72
2022/08/06 04:15:55;;;;;;;5.70;5.33;;;;;;;27.14;59.74;100426.29;1741737;81;21046;-74
2022/08/06 04:18:27;;;;;;;6.47;5.87;;;;;;;27.19;58.97;100422.12;1739777;81;21019;-73
2022/08/06 04:21:01;;;;;;;6.10;5.70;;;;;;;27.17;59.03;100423.78;1740480;81;21049;-74
2022/08/06 04:23:27;;;;;;;5.97;5.58;;;;;;;27.17;58.91;100422.97;1740940;81;21047;-73
2022/08/06 04:25:56;;;;;;;5.90;5.40;;;;;;;27.10;59.45;100424.70;1728819;82;21191;-72
2022/08/06 04:28:26;;;;;;;7.47;5.47;;;;;;;27.14;59.41;100424.92;1730626;81;21086;-74
2022/08/06 04:30:54;;;;;;;6.65;6.05;;;;;;;27.25;58.99;100421.48;1742114;81;21113;-76
2022/08/06 04:33:23;;;;;;;6.53;6.03;;;;;;;27.41;58.38;100423.43;1730905;81;21002;-79
2022/08/06 04:35:50;;;;;;;6.35;5.83;;;;;;;27.60;57.93;100426.95;1727747;81;21038;-74
2022/08/06 04:38:19;;;;;;;6.42;5.97;;;;;;;27.79;57.33;100423.34;1733349;81;21105;-73
2022/08/06 04:40:46;;;;;;;7.22;6.70;;;;;;;27.91;56.99;100414.90;1735046;81;21002;-75
2022/08/06 04:43:13;;;;;;;6.17;5.53;;;;;;;28.11;55.94;100416.44;1743818;81;21063;-74
2022/08/06 04:45:42;;;;;;;6.17;5.62;;;;;;;28.29;55.29;100416.09;1719677;81;21023;-77
2022/08/06 04:48:11;;;;;;;5.70;5.15;;;;;;;28.50;54.82;100409.63;1726602;81;21037;-74
2022/08/06 04:50:39;;;;;;;6.03;5.72;;;;;;;28.80;54.10;100416.95;1738447;81;21006;-74
2022/08/06 04:53:16;;;;;;;7.20;6.10;;;;;;;28.97;53.16;100415.46;1742865;81;21517;-74
2022/08/06 04:55:44;;;;;;;9.05;7.25;;;;;;;29.13;53.29;100420.88;1732234;81;21003;-74
2022/08/06 04:58:13;;;;;;;6.65;6.10;;;;;;;29.23;51.92;100414.33;1739303;81;20990;-74
2022/08/06 05:00:44;;;;;;;5.92;5.55;;;;;;;29.18;52.31;100418.56;1736637;81;21002;-75
2022/08/06 05:03:10;;;;;;;6.70;5.90;;;;;;;29.25;52.84;100415.66;1739632;81;20998;-75
2022/08/06 05:05:46;;;;;;;6.20;5.70;;;;;;;29.45;51.98;100416.27;1733095;81;21573;-75
2022/08/06 05:08:13;;;;;;;6.45;5.95;;;;;;;29.58;51.31;100410.45;1732551;81;21022;-75
2022/08/06 05:10:45;;;;;;;6.15;5.40;;;;;;;29.61;51.51;100413.37;1709910;82;21556;-75
2022/08/06 05:13:13;;;;;;;5.50;5.10;;;;;;;29.77;51.12;100414.38;1738976;81;21005;-69
2022/08/06 05:15:43;;;;;;;5.45;5.12;;;;;;;29.91;50.49;100412.31;1737900;81;21029;-70
2022/08/06 05:18:26;;;;;;;6.28;5.97;;;;;;;29.93;50.54;100416.13;1730333;82;21029;-69
2022/08/06 05:20:55;;;;;;;7.10;6.47;;;;;;;29.87;50.22;100416.26;1735287;81;21557;-73
2022/08/06 05:23:39;;;;;;;6.28;5.72;;;;;;;29.72;50.52;100409.77;1733779;81;21019;-72
2022/08/06 05:26:06;;;;;;;6.65;6.10;;;;;;;29.57;51.41;100412.36;1734795;81;22562;-76
2022/08/06 05:28:33;;;;;;;6.60;6.10;;;;;;;29.49;51.59;100401.58;1726967;81;21090;-73
2022/08/06 05:30:59;;;;;;;8.63;5.85;;;;;;;29.38;51.94;100401.59;1729461;81;21077;-76
2022/08/06 05:33:36;;;;;;;5.97;5.58;;;;;;;29.35;51.08;100399.48;1740184;81;21097;-72
2022/08/06 05:36:00;;;;;;;7.05;6.00;;;;;;;29.20;52.15;100412.23;1736503;81;21050;-74
2022/08/06 05:38:27;;;;;;;7.67;5.35;;;;;;;29.12;52.49;100410.98;1726402;81;21521;-72
2022/08/06 05:40:58;;;;;;;5.85;5.42;;;;;;;29.16;52.31;100407.09;1732499;81;21113;-74
2022/08/06 05:43:25;;;;;;;5.42;5.03;;;;;;;29.07;52.65;100410.55;1735110;81;21063;-72
2022/08/06 05:45:57;;;;;;;6.12;5.22;;;;;;;28.92;52.80;100406.23;1715767;81;21006;-72
2022/08/06 05:48:24;;;;;;;5.75;5.37;;;;;;;28.81;52.88;100410.34;1708636;82;21087;-74
2022/08/06 05:50:56;;;;;;;5.72;5.33;;;;;;;28.69;53.25;100404.59;1715239;82;21035;-74
2022/08/06 05:53:33;;;;;;;5.37;5.08;;;;;;;28.83;53.59;100415.52;1712897;82;21003;-73
2022/08/06 05:56:08;;;;;;;5.35;5.05;;;;;;;28.92;52.82;100411.73;1711008;82;20986;-74
2022/08/06 05:58:43;;;;;;;6.15;5.65;;;;;;;28.87;53.40;100406.91;1719143;82;21495;-72
2022/08/06 06:01:11;;;;;;;5.33;5.08;;;;;;;28.85;52.99;100412.70;1715049;82;20978;-72
2022/08/06 06:03:42;;;;;;;5.22;4.97;;;;;;;28.90;52.60;100412.59;1671591;84;21023;-72
2022/08/06 06:06:10;;;;;;;4.78;4.58;;;;;;;28.89;53.00;100410.95;1718250;82;21529;-73
2022/08/06 06:08:37;;;;;;;4.65;4.33;;;;;;;28.83;53.27;100413.58;1711282;82;21532;-73
2022/08/06 06:11:26;;;;;;;5.83;5.47;;;;;;;28.69;54.01;100407.34;1715886;82;21001;-72
2022/08/06 06:13:54;;;;;;;5.45;5.15;;;;;;;28.70;53.90;100405.63;1658088;85;21101;-74
2022/08/06 06:16:29;;;;;;;5.15;4.70;;;;;;;28.83;54.19;100408.09;1659730;85;21119;-72
2022/08/06 06:19:22;;;;;;;6.35;6.03;;;;;;;29.11;52.77;100405.26;1661640;85;21014;-73
2022/08/06 06:21:53;;;;;;;8.43;5.35;;;;;;;29.31;52.76;100408.91;1669908;85;21515;-73
2022/08/06 06:24:40;;;;;;;8.65;6.20;;;;;;;29.29;52.33;100409.78;1689402;83;21044;-73
2022/08/06 06:27:51;;;;;;;5.70;4.87;;;;;;;29.20;52.55;100409.48;1680641;83;21577;-73
2022/08/06 06:30:33;;;;;;;5.97;5.55;;;;;;;29.27;52.28;100411.20;1689355;83;21026;-72
2022/08/06 06:33:14;;;;;;;6.10;5.67;;;;;;;29.30;51.59;100401.78;1686502;83;20959;-75
2022/08/06 06:35:54;;;;;;;6.08;5.65;;;;;;;29.27;51.70;100402.97;1687018;83;21564;-74
2022/08/06 06:38:43;;;;;;;5.37;4.92;;;;;;;29.29;51.54;100406.20;1687533;83;21564;-75
2022/08/06 06:41:17;;;;;;;6.62;6.17;;;;;;;29.33;52.50;100397.63;1692768;83;21541;-76
2022/08/06 06:43:51;;;;;;;6.42;5.83;;;;;;;29.57;51.54;100387.64;1688539;83;21229;-76
2022/08/06 06:46:23;;;;;;;7.10;6.33;;;;;;;29.53;51.25;100387.23;1679673;83;21075;-75
2022/08/06 06:48:57;;;;;;;5.90;5.55;;;;;;;29.48;51.75;100395.05;1688143;83;21084;-74
2022/08/06 06:51:32;;;;;;;6.78;6.05;;;;;;;29.47;51.22;100395.59;1687733;83;21096;-75
2022/08/06 06:53:58;;;;;;;5.78;5.37;;;;;;;29.43;51.12;100392.42;1676348;83;20994;-75
2022/08/06 06:56:30;;;;;;;5.67;5.28;;;;;;;29.33;52.14;100392.67;1690523;83;21086;-75
2022/08/06 06:59:10;;;;;;;5.75;5.33;;;;;;;29.26;51.60;100388.44;1684562;83;21029;-76
2022/08/06 07:01:39;;;;;;;6.05;5.67;;;;;;;29.19;51.40;100391.38;1685916;83;21477;-75
2022/08/06 07:04:09;;;;;;;6.47;5.40;;;;;;;29.12;51.91;100381.62;1700471;83;20985;-75
2022/08/06 07:06:38;;;;;;;6.10;5.70;;;;;;;28.99;52.33;100376.18;1688325;83;21034;-74
2022/08/06 07:09:05;;;;;;;5.90;5.47;;;;;;;28.92;52.94;100379.37;1687716;83;21024;-75
2022/08/06 07:11:33;;;;;;;6.00;5.42;;;;;;;29.11;52.23;100373.13;1685557;83;20998;-75
2022/08/06 07:14:01;;;;;;;6.00;5.70;;;;;;;29.41;51.63;100379.58;1683583;83;20984;-75
2022/08/06 07:16:31;;;;;;;6.55;6.00;;;;;;;29.62;52.06;100373.78;1687707;83;21031;-74
2022/08/06 07:19:00;;;;;;;5.92;5.47;;;;;;;29.75;50.52;100374.05;1685034;83;21568;-74
2022/08/06 07:21:27;;;;;;;4.58;4.30;;;;;;;29.69;50.61;100383.77;1686214;83;21002;-74
2022/08/06 07:23:54;;;;;;;6.08;4.75;;;;;;;29.66;49.11;100386.33;1694426;83;21074;-75
2022/08/06 07:26:23;;;;;;;5.17;4.85;;;;;;;29.70;49.19;100379.90;1691679;83;21146;-75
2022/08/06 07:28:52;;;;;;;4.87;4.12;;;;;;;29.81;49.75;100370.83;1688619;83;20947;-74
2022/08/06 07:31:23;;;;;;;5.62;5.15;;;;;;;29.85;50.09;100371.01;1683661;83;21107;-75
2022/08/06 07:33:51;;;;;;;5.55;5.08;;;;;;;29.72;49.26;100371.89;1687482;82;20982;-73
2022/08/06 07:36:22;;;;;;;5.97;5.45;;;;;;;29.50;49.49;100373.58;1687308;83;21058;-74
2022/08/06 07:38:49;;;;;;;5.00;4.70;;;;;;;29.23;51.01;100365.73;1658138;85;21114;-75
2022/08/06 07:41:19;;;;;;;5.50;5.03;;;;;;;28.89;50.20;100367.06;1685962;83;20968;-72
2022/08/06 07:45:13;;;;;;;5.50;5.10;;;;;;;28.58;52.28;100367.55;1769747;78;22912;-73
2022/08/06 07:47:42;;;;;;;4.47;4.17;;;;;;;28.44;51.26;100370.27;1701514;83;21111;-74
2022/08/06 07:50:12;;;;;;;4.33;4.12;;;;;;;28.44;50.22;100374.38;1703851;83;21087;-72
2022/08/06 07:52:40;;;;;;;4.50;4.30;;;;;;;28.40;50.09;100368.70;1698130;83;21084;-75
2022/08/06 07:55:12;;;;;;;5.90;4.85;;;;;;;28.35;49.83;100368.84;1706306;82;21143;-74
2022/08/06 07:57:40;;;;;;;4.35;4.08;;;;;;;28.29;51.07;100362.66;1704845;83;20980;-74
2022/08/06 08:00:09;;;;;;;5.67;5.28;;;;;;;28.22;51.20;100377.86;1704013;82;21083;-73
2022/08/06 08:02:38;;;;;;;5.42;5.03;;;;;;;28.15;51.32;100365.95;1708993;83;21005;-71
2022/08/06 08:07:51;;;;;;;5.50;5.15;;;;;;;27.74;51.14;100329.76;1732210;81;21100;-73
2022/08/06 08:10:19;;;;;;;4.85;4.45;;;;;;;27.88;51.62;100379.88;1729018;81;21049;-72
2022/08/06 08:12:47;;;;;;;4.92;4.53;;;;;;;27.83;50.89;100377.80;1722650;81;21029;-72
2022/08/06 08:15:13;;;;;;;6.08;4.35;;;;;;;27.80;51.24;100377.83;1741210;81;21896;-73
2022/08/06 08:17:39;;;;;;;5.22;4.78;;;;;;;27.76;52.26;100384.50;1733920;81;21024;-71
2022/08/06 08:20:08;;;;;;;4.85;4.55;;;;;;;27.74;52.26;100373.58;1728660;81;21049;-74
2022/08/06 08:22:35;;;;;;;6.05;5.53;;;;;;;27.74;52.72;100366.16;1711314;82;21030;-73
2022/08/06 08:25:01;;;;;;;5.60;5.17;;;;;;;27.80;53.14;100370.18;1659919;85;21622;-73
2022/08/06 08:27:27;;;;;;;5.72;5.33;;;;;;;27.76;53.08;100372.17;1656306;85;21144;-72
2022/08/06 08:29:53;;;;;;;6.05;5.55;;;;;;;27.74;53.02;100372.20;1655995;85;21098;-71
2022/08/06 08:32:21;;;;;;;5.87;5.37;;;;;;;27.71;53.08;100363.25;1656009;85;21085;-72
2022/08/06 08:34:47;;;;;;;5.55;5.25;;;;;;;27.65;53.33;100358.95;1692352;82;21155;-71
2022/08/06 08:37:13;;;;;;;7.25;6.55;;;;;;;27.61;53.41;100371.06;1705687;82;21655;-72
2022/08/06 08:39:39;;;;;;;6.35;5.90;;;;;;;27.61;54.06;100361.48;1696926;82;21035;-74
2022/08/06 08:42:19;;;;;;;5.78;5.47;;;;;;;27.60;54.00;100358.51;1703565;82;21516;-73
2022/08/06 08:44:46;;;;;;;6.97;6.37;;;;;;;27.61;54.19;100361.48;1693206;82;21118;-73
2022/08/06 08:47:13;;;;;;;5.70;5.30;;;;;;;27.61;55.27;100352.47;1658543;85;21055;-74
2022/08/06 08:49:46;;;;;;;5.83;4.03;;;;;;;27.57;54.95;100360.47;1658834;86;21048;-72
2022/08/06 08:52:16;;;;;;;5.25;4.92;;;;;;;27.60;51.57;100351.66;1657134;85;21147;-74
2022/08/06 08:54:47;;;;;;;5.47;5.10;;;;;;;27.62;52.15;100356.27;1657990;85;21575;-71
2022/08/06 08:57:15;;;;;;;5.45;5.15;;;;;;;27.51;52.94;100348.00;1668817;83;21048;-73
2022/08/06 08:59:42;;;;;;;5.62;5.10;;;;;;;27.32;53.51;100363.11;1684223;83;21561;-72
2022/08/06 09:02:13;;;;;;;6.12;5.62;;;;;;;27.22;52.34;100349.56;1691223;83;21537;-72
2022/08/06 09:04:41;;;;;;;5.25;4.95;;;;;;;27.20;53.82;100348.52;1693600;83;21033;-73
2022/08/06 09:07:09;;;;;;;5.10;4.72;;;;;;;27.28;54.10;100347.05;1667557;84;21045;-74
2022/08/06 09:09:38;;;;;;;6.10;5.70;;;;;;;27.36;52.89;100352.62;1680835;83;21057;-74
2022/08/06 09:12:07;;;;;;;4.78;4.47;;;;;;;27.47;51.61;100346.98;1682334;83;21029;-74
2022/08/06 09:14:35;;;;;;;4.67;4.47;;;;;;;27.55;51.43;100354.48;1678854;84;21097;-72
2022/08/06 09:17:05;;;;;;;4.92;4.53;;;;;;;27.63;51.42;100349.67;1680809;84;21013;-74
2022/08/06 09:19:32;;;;;;;5.05;4.65;;;;;;;27.67;51.09;100345.23;1673322;84;21077;-73
2022/08/06 09:21:59;;;;;;;5.42;4.87;;;;;;;27.69;51.49;100356.70;1673249;84;21048;-72
2022/08/06 09:24:27;;;;;;;5.08;4.78;;;;;;;27.81;52.15;100367.70;1679130;84;21062;-74
2022/08/06 09:27:15;;;;;;;5.45;5.05;;;;;;;27.89;51.88;100367.02;1680372;84;21029;-73
2022/08/06 09:29:52;;;;;;;6.85;6.45;;;;;;;27.97;52.20;100356.72;1677636;84;21125;-73
2022/08/06 09:32:46;;;;;;;6.65;6.30;;;;;;;28.05;52.89;100360.13;1675160;84;21582;-73
2022/08/06 09:35:22;;;;;;;6.70;6.20;;;;;;;28.10;53.10;100385.23;1680583;84;21006;-74
2022/08/06 09:37:50;;;;;;;7.22;6.70;;;;;;;28.13;53.48;100362.14;1623577;87;21620;-75
2022/08/06 09:40:19;;;;;;;6.53;6.05;;;;;;;28.13;54.29;100367.62;1622573;87;20990;-74
2022/08/06 09:42:48;;;;;;;6.10;5.83;;;;;;;28.11;53.82;100361.64;1650232;85;21009;-75
2022/08/06 09:45:17;;;;;;;6.53;6.08;;;;;;;28.12;54.04;100370.13;1621177;85;21192;-73
2022/08/06 09:47:49;;;;;;;6.22;5.90;;;;;;;28.11;53.32;100367.69;1650571;85;21191;-74
2022/08/06 09:50:35;;;;;;;6.83;6.42;;;;;;;28.06;53.50;100362.30;1586015;87;21092;-74
2022/08/06 09:53:02;;;;;;;6.20;5.55;;;;;;;28.05;53.80;100356.02;1630834;86;21160;-74
2022/08/06 09:55:31;;;;;;;6.08;5.67;;;;;;;28.07;53.66;100363.94;1639574;84;21162;-74
2022/08/06 09:57:58;;;;;;;6.00;5.62;;;;;;;28.08;53.00;100353.22;1679400;84;21018;-73
2022/08/06 10:00:27;;;;;;;4.03;3.72;;;;;;;28.13;52.74;100359.97;1682969;83;21204;-73
2022/08/06 10:03:04;;;;;;;4.58;4.25;;;;;;;28.15;51.25;100363.22;1664459;85;21676;-74
2022/08/06 10:05:32;;;;;;;5.92;4.35;;;;;;;28.13;50.59;100361.34;1653622;85;21076;-75
2022/08/06 10:08:16;;;;;;;6.95;4.10;;;;;;;28.14;50.33;100351.98;1661566;85;21001;-74
2022/08/06 10:10:47;;;;;;;4.35;4.05;;;;;;;28.19;50.46;100356.00;1639237;86;21130;-75
2022/08/06 10:13:20;;;;;;;4.25;3.95;;;;;;;28.25;50.77;100357.51;1648752;87;21013;-75
2022/08/06 10:15:50;;;;;;;3.60;3.37;;;;;;;28.28;48.38;100361.59;1647691;86;21064;-73
2022/08/06 10:18:41;;;;;;;3.52;3.20;;;;;;;28.26;48.74;100362.45;1650277;87;21520;-72
2022/08/06 10:21:12;;;;;;;3.62;3.40;;;;;;;28.29;48.21;100361.28;1678670;84;21021;-74
2022/08/06 10:23:41;;;;;;;3.40;3.20;;;;;;;28.35;47.42;100372.95;1649776;85;21013;-73
2022/08/06 10:26:11;;;;;;;3.02;2.90;;;;;;;28.40;47.32;100363.22;1677769;84;21102;-72
2022/08/06 10:28:40;;;;;;;3.70;3.40;;;;;;;28.46;47.73;100358.44;1678637;84;21045;-73
2022/08/06 10:31:11;;;;;;;3.47;3.17;;;;;;;28.48;48.31;100348.80;1650830;85;21033;-73
2022/08/06 10:33:54;;;;;;;3.67;3.50;;;;;;;28.50;47.66;100357.53;1669473;84;21536;-73
2022/08/06 10:36:25;;;;;;;3.77;3.65;;;;;;;28.57;46.80;100348.90;1674807;84;21048;-73
2022/08/06 10:38:54;;;;;;;3.15;2.95;;;;;;;28.67;46.31;100365.67;1669837;85;21021;-74
2022/08/06 10:41:20;;;;;;;3.52;3.33;;;;;;;28.71;46.38;100347.50;1697453;83;21080;-73
2022/08/06 10:43:48;;;;;;;3.90;3.70;;;;;;;28.71;45.83;100348.87;1708208;83;21588;-74
2022/08/06 10:46:19;;;;;;;3.83;3.50;;;;;;;28.46;46.79;100330.48;1700824;83;21573;-73
2022/08/06 10:48:53;;;;;;;2.98;2.77;;;;;;;28.73;46.77;100352.92;1703105;83;21069;-72
2022/08/06 10:51:15;;;;;;;2.70;2.60;;;;;;;28.75;45.49;100356.73;1696601;83;21025;-73
2022/08/06 10:53:44;;;;;;;2.30;2.20;;;;;;;28.72;45.08;100360.08;1703038;83;21024;-73
2022/08/06 10:56:15;;;;;;;4.10;2.83;;;;;;;28.62;44.27;100356.21;1702677;83;21597;-73
2022/08/06 10:58:42;;;;;;;3.25;3.15;;;;;;;28.54;45.69;100348.97;1702893;83;21014;-73
2022/08/06 11:01:36;;;;;;;3.12;2.70;;;;;;;28.56;45.92;100361.54;1694769;83;20994;-74
2022/08/06 11:04:19;;;;;;;3.10;2.90;;;;;;;28.61;44.48;100342.23;1706133;82;21144;-73
2022/08/06 11:07:26;;;;;;;3.12;2.92;;;;;;;28.68;44.44;100343.43;1708406;84;20986;-73
2022/08/06 11:10:29;;;;;;;2.65;2.55;;;;;;;28.74;44.51;100344.12;1710147;82;21141;-73
2022/08/06 11:13:32;;;;;;;3.33;3.08;;;;;;;28.74;45.12;100338.63;1700414;82;21534;-74
2022/08/06 11:15:59;;;;;;;3.05;2.85;;;;;;;28.81;45.71;100353.30;1714709;82;21002;-75
2022/08/06 11:18:25;;;;;;;3.50;3.22;;;;;;;28.82;44.70;100353.00;1715017;82;21001;-75
2022/08/06 11:20:52;;;;;;;4.08;3.58;;;;;;;28.77;45.08;100344.08;1715283;82;21498;-74
2022/08/06 11:23:23;;;;;;;3.42;3.12;;;;;;;28.73;45.81;100337.03;1699457;82;21032;-74
2022/08/06 11:25:56;;;;;;;4.15;3.05;;;;;;;28.69;46.18;100337.41;1679493;84;21115;-74
2022/08/06 11:28:35;;;;;;;3.65;3.40;;;;;;;28.66;46.24;100335.27;1649989;84;21507;-74
2022/08/06 11:31:05;;;;;;;3.30;3.10;;;;;;;28.69;46.96;100333.30;1681416;84;21052;-75
2022/08/06 11:33:40;;;;;;;3.30;3.20;;;;;;;28.68;47.34;100336.58;1685295;83;21048;-71
2022/08/06 11:36:14;;;;;;;3.60;3.20;;;;;;;28.73;47.21;100327.43;1691937;83;21100;-73
2022/08/06 11:38:55;;;;;;;3.10;2.85;;;;;;;28.79;47.15;100322.64;1695873;83;21004;-73
2022/08/06 11:41:27;;;;;;;2.92;2.77;;;;;;;28.86;46.94;100329.88;1697096;84;21036;-73
2022/08/06 11:44:01;;;;;;;2.70;2.60;;;;;;;28.96;46.04;100326.06;1698094;83;21072;-74
2022/08/06 11:46:32;;;;;;;3.23;2.87;;;;;;;29.03;45.71;100337.41;1687337;83;21045;-74
2022/08/06 11:49:22;;;;;;;2.58;2.45;;;;;;;29.03;44.70;100339.59;1687691;83;21629;-72